createdAt,value
2023-09-21T00:02:50.726Z,19.62
2023-09-21T00:07:53.881Z,19.42
2023-09-21T00:12:56.031Z,19.39
2023-09-21T00:17:59.669Z,19.36
2023-09-21T00:23:01.925Z,19.35
2023-09-21T00:28:14.174Z,19.33
2023-09-21T00:33:17.112Z,19.34
2023-09-21T00:38:20.936Z,19.26
2023-09-21T00:43:28.230Z,19.21
2023-09-21T00:48:37.504Z,19.25
2023-09-21T00:53:41.382Z,19.14
2023-09-21T00:58:49.179Z,19.21
2023-09-21T01:03:54.144Z,19.13
2023-09-21T01:08:58.340Z,19.12
2023-09-21T01:14:00.560Z,19.08
2023-09-21T01:19:03.485Z,19.09
2023-09-21T01:24:07.259Z,19.07
2023-09-21T01:29:10.668Z,19.04
2023-09-21T01:34:12.808Z,19.07
2023-09-21T01:39:15.065Z,19.00
2023-09-21T01:44:17.106Z,19.03
2023-09-21T01:49:19.201Z,18.99
2023-09-21T01:54:21.430Z,18.93
2023-09-21T01:59:24.130Z,18.92
2023-09-21T02:04:27.065Z,18.90
2023-09-21T02:09:29.740Z,18.90
2023-09-21T02:14:33.221Z,18.80
2023-09-21T02:19:38.801Z,18.88
2023-09-21T02:24:41.750Z,18.84
2023-09-21T02:29:43.982Z,18.85
2023-09-21T02:34:46.434Z,18.80
2023-09-21T02:39:49.803Z,18.81
2023-09-21T02:44:52.026Z,18.80
2023-09-21T02:49:55.016Z,18.80
2023-09-21T02:54:59.257Z,18.78
2023-09-21T03:00:09.980Z,18.79
2023-09-21T03:05:12.345Z,18.78
2023-09-21T03:10:15.115Z,18.77
2023-09-21T03:15:19.811Z,18.75
2023-09-21T03:20:37.964Z,18.89
2023-09-21T03:25:51.486Z,19.00
2023-09-21T03:30:55.616Z,18.81
2023-09-21T03:35:58.072Z,18.81
2023-09-21T03:41:00.347Z,18.86
2023-09-21T03:46:02.542Z,18.89
2023-09-21T03:51:06.242Z,18.99
2023-09-21T03:56:08.385Z,19.03
2023-09-21T04:01:10.891Z,19.10
2023-09-21T04:06:13.562Z,19.16
2023-09-21T04:11:15.884Z,19.27
2023-09-21T04:16:18.430Z,19.46
2023-09-21T04:21:21.499Z,19.67
2023-09-21T04:26:23.655Z,19.79
2023-09-21T04:31:25.792Z,19.88
2023-09-21T04:36:27.969Z,20.00
2023-09-21T04:41:31.462Z,20.05
2023-09-21T04:46:33.974Z,20.03
2023-09-21T04:51:36.355Z,20.08
2023-09-21T04:56:38.583Z,20.05
2023-09-21T05:01:40.856Z,19.98
2023-09-21T05:06:43.797Z,19.77
2023-09-21T05:11:47.450Z,19.87
2023-09-21T05:16:49.801Z,19.94
2023-09-21T05:21:52.264Z,19.93
2023-09-21T05:26:55.052Z,19.95
2023-09-21T05:31:58.225Z,20.01
2023-09-21T05:37:00.633Z,20.19
2023-09-21T05:42:02.925Z,20.41
2023-09-21T05:47:05.244Z,20.80
2023-09-21T05:52:13.205Z,21.22
2023-09-21T05:57:17.356Z,21.58
2023-09-21T06:02:19.454Z,21.80
2023-09-21T06:07:22.887Z,21.88
2023-09-21T06:12:28.976Z,21.89
2023-09-21T06:17:31.292Z,21.97
2023-09-21T06:22:33.460Z,21.89
2023-09-21T06:27:37.798Z,21.86
2023-09-21T06:32:40.688Z,21.76
2023-09-21T06:37:42.978Z,21.57
2023-09-21T06:42:45.154Z,21.56
2023-09-21T06:47:49.078Z,21.62
2023-09-21T06:52:53.127Z,21.66
2023-09-21T06:57:55.321Z,21.93
2023-09-21T07:02:57.548Z,22.19
2023-09-21T07:07:59.896Z,22.56
2023-09-21T07:13:02.005Z,23.01
2023-09-21T07:18:06.874Z,23.73
2023-09-21T07:23:09.443Z,23.78
2023-09-21T07:28:11.544Z,23.72
2023-09-21T07:33:13.828Z,23.52
2023-09-21T07:38:16.045Z,23.37
2023-09-21T07:43:18.223Z,23.06
2023-09-21T07:48:21.713Z,23.04
2023-09-21T07:53:24.028Z,23.42
2023-09-21T07:58:26.168Z,23.76
2023-09-21T08:03:28.529Z,23.65
2023-09-21T08:08:30.800Z,23.69
2023-09-21T08:13:34.862Z,23.53
2023-09-21T08:18:37.693Z,23.34
2023-09-21T08:23:41.365Z,23.36
2023-09-21T08:28:43.578Z,23.43
2023-09-21T08:33:47.199Z,23.56
2023-09-21T08:38:49.345Z,23.46
2023-09-21T08:43:55.722Z,23.28
2023-09-21T08:49:01.362Z,23.28
2023-09-21T08:54:05.239Z,23.16
2023-09-21T08:59:08.169Z,23.34
2023-09-21T09:04:11.674Z,23.19
2023-09-21T09:09:14.870Z,23.00
2023-09-21T09:14:19.008Z,22.97
2023-09-21T09:19:22.160Z,23.19
2023-09-21T09:24:24.977Z,23.22
2023-09-21T09:29:28.115Z,23.45
2023-09-21T09:34:30.190Z,23.53
2023-09-21T09:39:32.415Z,23.40
2023-09-21T09:44:42.456Z,23.55
2023-09-21T09:49:49.336Z,23.37
2023-09-21T09:54:54.061Z,23.18
2023-09-21T09:59:58.612Z,22.83
2023-09-21T10:05:01.020Z,22.50
2023-09-21T10:10:09.316Z,22.43
2023-09-21T10:15:14.775Z,22.49
2023-09-21T10:20:26.039Z,22.39
2023-09-21T10:25:49.634Z,22.78
2023-09-21T10:31:24.964Z,23.45
2023-09-21T10:36:31.991Z,23.86
2023-09-21T10:41:34.704Z,24.10
2023-09-21T10:46:38.937Z,24.02
2023-09-21T10:51:41.560Z,23.68
2023-09-21T10:56:44.461Z,23.67
2023-09-21T11:01:47.159Z,23.99
2023-09-21T11:06:49.525Z,24.07
2023-09-21T11:11:51.985Z,24.44
2023-09-21T11:16:54.609Z,25.15
2023-09-21T11:21:57.318Z,25.28
2023-09-21T11:26:59.807Z,25.06
2023-09-21T11:32:02.384Z,24.95
2023-09-21T11:37:07.143Z,24.86
2023-09-21T11:42:11.969Z,24.41
2023-09-21T11:47:16.829Z,24.16
2023-09-21T11:52:19.025Z,24.23
2023-09-21T11:57:21.427Z,24.65
2023-09-21T12:02:23.614Z,24.75
2023-09-21T12:07:26.124Z,25.31
2023-09-21T12:12:28.321Z,25.50
2023-09-21T12:17:31.424Z,25.46
2023-09-21T12:22:38.305Z,25.36
2023-09-21T12:27:40.663Z,25.17
2023-09-21T12:32:42.969Z,24.95
2023-09-21T12:37:47.932Z,24.47
2023-09-21T12:42:50.119Z,24.30
2023-09-21T12:47:52.239Z,24.29
2023-09-21T12:52:55.854Z,24.27
2023-09-21T12:57:59.964Z,23.93
2023-09-21T13:03:04.317Z,23.99
2023-09-21T13:08:07.357Z,24.06
2023-09-21T13:13:12.527Z,23.79
2023-09-21T13:18:16.679Z,23.49
2023-09-21T13:23:18.873Z,23.35
2023-09-21T13:28:21.372Z,23.08
2023-09-21T13:33:24.451Z,23.10
2023-09-21T13:38:29.107Z,23.01
2023-09-21T13:43:31.495Z,22.88
2023-09-21T13:48:34.691Z,22.74
2023-09-21T13:53:37.275Z,22.65
2023-09-21T13:58:39.493Z,22.52
2023-09-21T14:03:41.909Z,22.42
2023-09-21T14:08:44.806Z,22.48
2023-09-21T14:13:47.439Z,22.51
2023-09-21T14:18:49.589Z,22.54
2023-09-21T14:23:51.797Z,22.50
2023-09-21T14:28:53.924Z,22.55
2023-09-21T14:33:58.521Z,22.54
2023-09-21T14:39:00.933Z,22.45
2023-09-21T14:44:03.184Z,22.46
2023-09-21T14:49:05.391Z,22.40
2023-09-21T14:54:08.213Z,22.31
2023-09-21T14:59:10.514Z,22.23
2023-09-21T15:04:12.791Z,22.08
2023-09-21T15:09:15.791Z,22.14
2023-09-21T15:14:18.210Z,22.07
2023-09-21T15:19:20.344Z,21.94
2023-09-21T15:24:23.711Z,21.92
2023-09-21T15:29:25.976Z,21.89
2023-09-21T15:34:28.166Z,21.90
2023-09-21T15:39:30.479Z,21.89
2023-09-21T15:44:33.006Z,21.87
2023-09-21T15:49:35.101Z,21.85
2023-09-21T15:54:37.331Z,21.77
2023-09-21T15:59:39.599Z,21.72
2023-09-21T16:04:41.925Z,21.62
2023-09-21T16:09:44.322Z,21.57
2023-09-21T16:14:46.567Z,21.51
2023-09-21T16:19:48.902Z,21.46
2023-09-21T16:24:51.296Z,21.31
2023-09-21T16:29:53.495Z,21.24
2023-09-21T16:34:55.709Z,21.12
2023-09-21T16:39:57.865Z,20.91
2023-09-21T16:45:00.688Z,20.85
2023-09-21T16:50:03.522Z,20.72
2023-09-21T16:55:06.311Z,20.80
2023-09-21T17:00:08.852Z,20.85
2023-09-21T17:05:11.021Z,20.87
2023-09-21T17:10:13.316Z,20.90
2023-09-21T17:15:15.603Z,20.82
2023-09-21T17:20:17.918Z,20.91
2023-09-21T17:25:20.269Z,20.83
2023-09-21T17:30:22.443Z,20.81
2023-09-21T17:35:24.635Z,20.69
2023-09-21T17:40:26.966Z,20.74
2023-09-21T17:45:29.530Z,20.71
2023-09-21T17:50:32.835Z,20.69
2023-09-21T17:55:35.956Z,20.72
2023-09-21T18:00:38.336Z,20.73
2023-09-21T18:05:40.567Z,20.73
2023-09-21T18:10:42.712Z,20.75
2023-09-21T18:15:44.911Z,20.80
2023-09-21T18:20:47.298Z,20.82
2023-09-21T18:25:49.507Z,20.80
2023-09-21T18:30:51.993Z,20.80
2023-09-21T18:35:54.188Z,20.78
2023-09-21T18:40:56.442Z,20.78
2023-09-21T18:46:01.854Z,20.78
2023-09-21T18:51:04.043Z,20.77
2023-09-21T18:56:07.920Z,20.76
2023-09-21T19:01:13.400Z,20.78
2023-09-21T19:06:16.055Z,20.70
2023-09-21T19:11:20.043Z,20.70
2023-09-21T19:16:22.523Z,20.78
2023-09-21T19:21:25.108Z,20.81
2023-09-21T19:26:27.445Z,20.82
2023-09-21T19:31:29.610Z,20.85
2023-09-21T19:36:31.833Z,20.87
2023-09-21T19:41:34.164Z,20.88
2023-09-21T19:46:36.333Z,20.90
2023-09-21T19:51:39.037Z,20.91
2023-09-21T19:56:44.028Z,20.91
2023-09-21T20:01:46.410Z,20.92
2023-09-21T20:06:48.551Z,20.93
2023-09-21T20:11:51.858Z,20.93
2023-09-21T20:16:54.125Z,20.92
2023-09-21T20:21:57.820Z,20.86
2023-09-21T20:27:00.314Z,20.77
2023-09-21T20:32:07.021Z,20.72
2023-09-21T20:37:09.380Z,20.43
2023-09-21T20:42:11.476Z,20.28
2023-09-21T20:47:13.606Z,20.17
2023-09-21T20:52:16.571Z,20.10
2023-09-21T20:57:19.096Z,20.13
2023-09-21T21:02:21.242Z,20.14
2023-09-21T21:07:23.360Z,20.05
2023-09-21T21:12:25.701Z,19.97
2023-09-21T21:17:29.863Z,19.98
2023-09-21T21:22:32.101Z,20.02
2023-09-21T21:27:34.247Z,20.02
2023-09-21T21:32:36.564Z,19.87
2023-09-21T21:37:38.788Z,19.86
2023-09-21T21:42:41.815Z,19.78
2023-09-21T21:47:44.707Z,19.66
2023-09-21T21:52:46.896Z,19.57
2023-09-21T21:57:49.027Z,19.48
2023-09-21T22:02:51.213Z,19.43
2023-09-21T22:07:54.383Z,19.38
2023-09-21T22:12:56.728Z,19.30
2023-09-21T22:17:58.978Z,19.22
2023-09-21T22:23:01.254Z,19.15
2023-09-21T22:28:04.846Z,19.11
2023-09-21T22:33:07.957Z,19.03
2023-09-21T22:38:14.895Z,18.97
2023-09-21T22:43:17.472Z,18.90
2023-09-21T22:48:19.929Z,18.87
2023-09-21T22:53:23.043Z,18.83
2023-09-21T22:58:25.297Z,18.78
2023-09-21T23:03:27.810Z,18.76
2023-09-21T23:08:30.000Z,18.71
2023-09-21T23:13:32.157Z,18.69
2023-09-21T23:18:34.373Z,18.69
2023-09-21T23:23:40.546Z,18.76
2023-09-21T23:28:43.132Z,18.58
2023-09-21T23:33:45.623Z,18.53
2023-09-21T23:38:48.354Z,18.45
2023-09-21T23:43:51.157Z,18.41
2023-09-21T23:48:53.247Z,18.38
2023-09-21T23:53:58.048Z,18.35
2023-09-21T23:59:00.130Z,18.29
